sensor_id;sensor_type;location;lat;lon;timestamp;temperature;humidity
14122;DHT22;7139;48.114;11.442;2023-03-11T00:01:41;3.30;94.10
14122;DHT22;7139;48.114;11.442;2023-03-11T00:04:08;3.30;93.90
14122;DHT22;7139;48.114;11.442;2023-03-11T00:06:35;3.30;94.00
14122;DHT22;7139;48.114;11.442;2023-03-11T00:09:02;3.20;93.80
14122;DHT22;7139;48.114;11.442;2023-03-11T00:11:30;3.20;93.60
14122;DHT22;7139;48.114;11.442;2023-03-11T00:13:57;3.20;93.70
14122;DHT22;7139;48.114;11.442;2023-03-11T00:16:24;3.20;93.70
14122;DHT22;7139;48.114;11.442;2023-03-11T00:18:51;3.20;94.10
14122;DHT22;7139;48.114;11.442;2023-03-11T00:21:18;3.20;94.20
14122;DHT22;7139;48.114;11.442;2023-03-11T00:23:45;3.20;93.70
14122;DHT22;7139;48.114;11.442;2023-03-11T00:26:12;3.20;93.90
14122;DHT22;7139;48.114;11.442;2023-03-11T00:28:40;3.20;93.70
14122;DHT22;7139;48.114;11.442;2023-03-11T00:31:07;3.20;93.60
14122;DHT22;7139;48.114;11.442;2023-03-11T00:33:34;3.20;93.50
14122;DHT22;7139;48.114;11.442;2023-03-11T00:36:00;3.20;93.70
14122;DHT22;7139;48.114;11.442;2023-03-11T00:38:28;3.20;93.50
14122;DHT22;7139;48.114;11.442;2023-03-11T00:40:54;3.20;93.50
14122;DHT22;7139;48.114;11.442;2023-03-11T00:43:21;3.10;93.50
14122;DHT22;7139;48.114;11.442;2023-03-11T00:45:49;3.10;93.70
14122;DHT22;7139;48.114;11.442;2023-03-11T00:48:16;3.00;93.60
14122;DHT22;7139;48.114;11.442;2023-03-11T00:50:43;3.00;93.70
14122;DHT22;7139;48.114;11.442;2023-03-11T00:53:10;3.10;93.80
14122;DHT22;7139;48.114;11.442;2023-03-11T00:55:37;3.00;93.70
14122;DHT22;7139;48.114;11.442;2023-03-11T00:58:05;3.00;93.90
14122;DHT22;7139;48.114;11.442;2023-03-11T01:00:33;3.00;93.90
14122;DHT22;7139;48.114;11.442;2023-03-11T01:03:01;3.00;93.80
14122;DHT22;7139;48.114;11.442;2023-03-11T01:05:30;3.00;94.00
14122;DHT22;7139;48.114;11.442;2023-03-11T01:07:57;2.90;94.00
14122;DHT22;7139;48.114;11.442;2023-03-11T01:10:25;2.90;94.20
14122;DHT22;7139;48.114;11.442;2023-03-11T01:12:51;3.00;94.20
14122;DHT22;7139;48.114;11.442;2023-03-11T01:15:21;3.10;94.20
14122;DHT22;7139;48.114;11.442;2023-03-11T01:17:48;3.00;94.00
14122;DHT22;7139;48.114;11.442;2023-03-11T01:20:17;2.90;94.30
14122;DHT22;7139;48.114;11.442;2023-03-11T01:22:44;2.90;94.30
14122;DHT22;7139;48.114;11.442;2023-03-11T01:25:12;2.90;94.40
14122;DHT22;7139;48.114;11.442;2023-03-11T01:27:40;2.80;94.50
14122;DHT22;7139;48.114;11.442;2023-03-11T01:30:09;2.80;94.80
14122;DHT22;7139;48.114;11.442;2023-03-11T01:32:37;2.80;94.90
14122;DHT22;7139;48.114;11.442;2023-03-11T01:35:05;2.80;95.00
14122;DHT22;7139;48.114;11.442;2023-03-11T01:37:33;2.80;95.00
14122;DHT22;7139;48.114;11.442;2023-03-11T01:40:00;2.80;95.00
14122;DHT22;7139;48.114;11.442;2023-03-11T01:42:26;2.80;95.00
14122;DHT22;7139;48.114;11.442;2023-03-11T01:44:53;2.80;94.90
14122;DHT22;7139;48.114;11.442;2023-03-11T01:47:36;2.80;95.00
14122;DHT22;7139;48.114;11.442;2023-03-11T01:50:07;2.70;95.20
14122;DHT22;7139;48.114;11.442;2023-03-11T01:52:37;2.80;95.10
14122;DHT22;7139;48.114;11.442;2023-03-11T01:55:05;2.70;94.90
14122;DHT22;7139;48.114;11.442;2023-03-11T01:57:32;2.70;95.00
14122;DHT22;7139;48.114;11.442;2023-03-11T01:59:59;2.60;95.10
14122;DHT22;7139;48.114;11.442;2023-03-11T02:02:33;2.60;94.90
14122;DHT22;7139;48.114;11.442;2023-03-11T02:05:01;2.50;95.10
14122;DHT22;7139;48.114;11.442;2023-03-11T02:07:28;2.50;95.00
14122;DHT22;7139;48.114;11.442;2023-03-11T02:09:57;2.40;95.10
14122;DHT22;7139;48.114;11.442;2023-03-11T02:12:24;2.40;94.90
14122;DHT22;7139;48.114;11.442;2023-03-11T02:14:54;2.30;94.80
14122;DHT22;7139;48.114;11.442;2023-03-11T02:17:21;2.30;95.00
14122;DHT22;7139;48.114;11.442;2023-03-11T02:19:58;2.40;95.00
14122;DHT22;7139;48.114;11.442;2023-03-11T02:22:29;2.40;95.10
14122;DHT22;7139;48.114;11.442;2023-03-11T02:25:02;2.40;95.10
14122;DHT22;7139;48.114;11.442;2023-03-11T02:27:32;2.30;95.00
14122;DHT22;7139;48.114;11.442;2023-03-11T02:30:00;2.30;95.00
14122;DHT22;7139;48.114;11.442;2023-03-11T02:32:28;2.40;95.10
14122;DHT22;7139;48.114;11.442;2023-03-11T02:34:55;2.40;95.10
14122;DHT22;7139;48.114;11.442;2023-03-11T02:37:21;2.30;94.80
14122;DHT22;7139;48.114;11.442;2023-03-11T02:39:50;2.30;95.00
14122;DHT22;7139;48.114;11.442;2023-03-11T02:42:20;2.30;95.00
14122;DHT22;7139;48.114;11.442;2023-03-11T02:44:55;2.30;94.80
14122;DHT22;7139;48.114;11.442;2023-03-11T02:47:23;2.30;94.60
14122;DHT22;7139;48.114;11.442;2023-03-11T02:49:51;2.20;94.60
14122;DHT22;7139;48.114;11.442;2023-03-11T02:52:20;2.20;94.70
14122;DHT22;7139;48.114;11.442;2023-03-11T02:54:47;2.30;94.60
14122;DHT22;7139;48.114;11.442;2023-03-11T02:57:14;2.30;94.50
14122;DHT22;7139;48.114;11.442;2023-03-11T02:59:40;2.30;94.50
14122;DHT22;7139;48.114;11.442;2023-03-11T03:02:09;2.30;94.20
14122;DHT22;7139;48.114;11.442;2023-03-11T03:04:35;2.20;94.00
14122;DHT22;7139;48.114;11.442;2023-03-11T03:07:02;2.20;94.30
14122;DHT22;7139;48.114;11.442;2023-03-11T03:09:29;2.10;94.10
14122;DHT22;7139;48.114;11.442;2023-03-11T03:11:56;2.10;94.20
14122;DHT22;7139;48.114;11.442;2023-03-11T03:14:23;2.10;94.10
14122;DHT22;7139;48.114;11.442;2023-03-11T03:16:49;2.10;93.80
14122;DHT22;7139;48.114;11.442;2023-03-11T03:19:17;2.00;93.60
14122;DHT22;7139;48.114;11.442;2023-03-11T03:21:44;2.00;93.50
14122;DHT22;7139;48.114;11.442;2023-03-11T03:24:11;2.00;93.70
14122;DHT22;7139;48.114;11.442;2023-03-11T03:26:38;1.90;93.50
14122;DHT22;7139;48.114;11.442;2023-03-11T03:29:05;1.90;93.50
14122;DHT22;7139;48.114;11.442;2023-03-11T03:31:31;1.80;93.50
14122;DHT22;7139;48.114;11.442;2023-03-11T03:33:58;1.80;93.90
14122;DHT22;7139;48.114;11.442;2023-03-11T03:36:26;1.90;93.50
14122;DHT22;7139;48.114;11.442;2023-03-11T03:38:53;1.90;93.50
14122;DHT22;7139;48.114;11.442;2023-03-11T03:41:21;1.90;93.40
14122;DHT22;7139;48.114;11.442;2023-03-11T03:43:48;1.90;93.40
14122;DHT22;7139;48.114;11.442;2023-03-11T03:46:15;1.80;93.50
14122;DHT22;7139;48.114;11.442;2023-03-11T03:48:41;1.80;93.50
14122;DHT22;7139;48.114;11.442;2023-03-11T03:51:10;1.80;93.60
14122;DHT22;7139;48.114;11.442;2023-03-11T03:53:39;1.80;93.60
14122;DHT22;7139;48.114;11.442;2023-03-11T03:56:08;1.80;93.50
14122;DHT22;7139;48.114;11.442;2023-03-11T03:58:35;1.70;93.60
14122;DHT22;7139;48.114;11.442;2023-03-11T04:01:03;1.80;93.60
14122;DHT22;7139;48.114;11.442;2023-03-11T04:03:30;1.80;93.50
14122;DHT22;7139;48.114;11.442;2023-03-11T04:06:05;1.90;93.60
14122;DHT22;7139;48.114;11.442;2023-03-11T04:08:32;1.90;93.40
14122;DHT22;7139;48.114;11.442;2023-03-11T04:11:00;1.90;93.40
14122;DHT22;7139;48.114;11.442;2023-03-11T04:13:27;1.80;93.40
14122;DHT22;7139;48.114;11.442;2023-03-11T04:15:53;1.80;93.60
14122;DHT22;7139;48.114;11.442;2023-03-11T04:18:20;1.80;93.60
14122;DHT22;7139;48.114;11.442;2023-03-11T04:20:48;1.80;93.70
14122;DHT22;7139;48.114;11.442;2023-03-11T04:23:15;1.70;93.70
14122;DHT22;7139;48.114;11.442;2023-03-11T04:25:41;1.70;93.90
14122;DHT22;7139;48.114;11.442;2023-03-11T04:28:09;1.70;93.80
14122;DHT22;7139;48.114;11.442;2023-03-11T04:30:37;1.70;94.10
14122;DHT22;7139;48.114;11.442;2023-03-11T04:33:04;1.70;93.90
14122;DHT22;7139;48.114;11.442;2023-03-11T04:35:31;1.80;94.00
14122;DHT22;7139;48.114;11.442;2023-03-11T04:37:59;1.70;94.00
14122;DHT22;7139;48.114;11.442;2023-03-11T04:40:26;1.70;93.90
14122;DHT22;7139;48.114;11.442;2023-03-11T04:42:53;1.70;94.00
14122;DHT22;7139;48.114;11.442;2023-03-11T04:45:21;1.70;94.10
14122;DHT22;7139;48.114;11.442;2023-03-11T04:47:48;1.80;94.20
14122;DHT22;7139;48.114;11.442;2023-03-11T04:50:16;1.80;94.30
14122;DHT22;7139;48.114;11.442;2023-03-11T04:52:43;1.80;94.20
14122;DHT22;7139;48.114;11.442;2023-03-11T04:55:10;1.80;94.10
14122;DHT22;7139;48.114;11.442;2023-03-11T04:57:38;1.90;94.10
14122;DHT22;7139;48.114;11.442;2023-03-11T05:00:06;1.90;94.20
14122;DHT22;7139;48.114;11.442;2023-03-11T05:02:38;1.90;94.30
14122;DHT22;7139;48.114;11.442;2023-03-11T05:05:06;1.80;94.20
14122;DHT22;7139;48.114;11.442;2023-03-11T05:07:33;1.80;94.40
14122;DHT22;7139;48.114;11.442;2023-03-11T05:10:00;1.80;94.40
14122;DHT22;7139;48.114;11.442;2023-03-11T05:12:27;1.90;94.40
14122;DHT22;7139;48.114;11.442;2023-03-11T05:14:54;1.90;94.40
14122;DHT22;7139;48.114;11.442;2023-03-11T05:17:21;1.90;94.40
14122;DHT22;7139;48.114;11.442;2023-03-11T05:19:50;1.90;94.50
14122;DHT22;7139;48.114;11.442;2023-03-11T05:22:18;2.00;94.50
14122;DHT22;7139;48.114;11.442;2023-03-11T05:24:45;2.00;94.40
14122;DHT22;7139;48.114;11.442;2023-03-11T05:27:12;2.00;94.50
14122;DHT22;7139;48.114;11.442;2023-03-11T05:29:42;1.90;94.60
14122;DHT22;7139;48.114;11.442;2023-03-11T05:32:09;2.00;94.80
14122;DHT22;7139;48.114;11.442;2023-03-11T05:34:36;2.00;94.80
14122;DHT22;7139;48.114;11.442;2023-03-11T05:37:04;2.10;94.80
14122;DHT22;7139;48.114;11.442;2023-03-11T05:39:31;2.10;94.90
14122;DHT22;7139;48.114;11.442;2023-03-11T05:41:58;2.00;94.80
14122;DHT22;7139;48.114;11.442;2023-03-11T05:44:24;2.00;95.00
14122;DHT22;7139;48.114;11.442;2023-03-11T05:46:51;2.00;95.20
14122;DHT22;7139;48.114;11.442;2023-03-11T05:49:18;2.10;95.10
14122;DHT22;7139;48.114;11.442;2023-03-11T05:51:46;2.00;95.10
14122;DHT22;7139;48.114;11.442;2023-03-11T05:54:14;1.90;95.30
14122;DHT22;7139;48.114;11.442;2023-03-11T05:56:41;1.90;95.20
14122;DHT22;7139;48.114;11.442;2023-03-11T05:59:09;1.90;95.10
14122;DHT22;7139;48.114;11.442;2023-03-11T06:01:36;1.80;95.10
14122;DHT22;7139;48.114;11.442;2023-03-11T06:04:03;1.80;95.00
14122;DHT22;7139;48.114;11.442;2023-03-11T06:06:30;1.80;95.10
14122;DHT22;7139;48.114;11.442;2023-03-11T06:08:57;1.90;94.70
14122;DHT22;7139;48.114;11.442;2023-03-11T06:11:25;1.90;94.50
14122;DHT22;7139;48.114;11.442;2023-03-11T06:13:52;1.90;94.60
14122;DHT22;7139;48.114;11.442;2023-03-11T06:16:19;1.90;94.30
14122;DHT22;7139;48.114;11.442;2023-03-11T06:18:46;1.90;94.20
14122;DHT22;7139;48.114;11.442;2023-03-11T06:21:16;1.80;94.00
14122;DHT22;7139;48.114;11.442;2023-03-11T06:23:43;1.80;94.00
14122;DHT22;7139;48.114;11.442;2023-03-11T06:26:11;1.70;94.30
14122;DHT22;7139;48.114;11.442;2023-03-11T06:28:40;1.70;93.90
14122;DHT22;7139;48.114;11.442;2023-03-11T06:31:08;1.60;93.80
14122;DHT22;7139;48.114;11.442;2023-03-11T06:33:35;1.60;93.70
14122;DHT22;7139;48.114;11.442;2023-03-11T06:36:04;1.50;93.40
14122;DHT22;7139;48.114;11.442;2023-03-11T06:38:31;1.60;93.60
14122;DHT22;7139;48.114;11.442;2023-03-11T06:40:59;1.60;93.40
14122;DHT22;7139;48.114;11.442;2023-03-11T06:43:26;1.60;93.40
14122;DHT22;7139;48.114;11.442;2023-03-11T06:45:55;1.60;93.00
14122;DHT22;7139;48.114;11.442;2023-03-11T06:48:23;1.60;92.80
14122;DHT22;7139;48.114;11.442;2023-03-11T06:50:53;1.50;92.50
14122;DHT22;7139;48.114;11.442;2023-03-11T06:53:20;1.50;92.20
14122;DHT22;7139;48.114;11.442;2023-03-11T06:55:57;1.50;92.80
14122;DHT22;7139;48.114;11.442;2023-03-11T06:58:24;1.50;92.60
14122;DHT22;7139;48.114;11.442;2023-03-11T07:00:50;1.60;92.20
14122;DHT22;7139;48.114;11.442;2023-03-11T07:03:18;1.40;92.20
14122;DHT22;7139;48.114;11.442;2023-03-11T07:05:49;1.30;92.00
14122;DHT22;7139;48.114;11.442;2023-03-11T07:08:16;1.20;92.00
14122;DHT22;7139;48.114;11.442;2023-03-11T07:10:43;1.20;92.20
14122;DHT22;7139;48.114;11.442;2023-03-11T07:13:10;1.20;92.30
14122;DHT22;7139;48.114;11.442;2023-03-11T07:15:37;1.30;92.10
14122;DHT22;7139;48.114;11.442;2023-03-11T07:18:04;1.10;92.10
14122;DHT22;7139;48.114;11.442;2023-03-11T07:20:32;1.10;92.60
14122;DHT22;7139;48.114;11.442;2023-03-11T07:22:59;1.30;92.70
14122;DHT22;7139;48.114;11.442;2023-03-11T07:25:25;1.40;92.50
14122;DHT22;7139;48.114;11.442;2023-03-11T07:27:52;1.40;92.70
14122;DHT22;7139;48.114;11.442;2023-03-11T07:30:19;1.50;92.60
14122;DHT22;7139;48.114;11.442;2023-03-11T07:32:46;1.50;92.40
14122;DHT22;7139;48.114;11.442;2023-03-11T07:35:13;1.60;92.50
14122;DHT22;7139;48.114;11.442;2023-03-11T07:37:41;1.60;92.50
14122;DHT22;7139;48.114;11.442;2023-03-11T07:40:09;1.50;92.60
14122;DHT22;7139;48.114;11.442;2023-03-11T07:42:36;1.50;92.90
14122;DHT22;7139;48.114;11.442;2023-03-11T07:45:03;1.50;93.20
14122;DHT22;7139;48.114;11.442;2023-03-11T07:47:30;1.60;93.20
14122;DHT22;7139;48.114;11.442;2023-03-11T07:49:56;1.80;92.90
14122;DHT22;7139;48.114;11.442;2023-03-11T07:52:23;1.90;92.80
14122;DHT22;7139;48.114;11.442;2023-03-11T07:54:51;1.90;92.80
14122;DHT22;7139;48.114;11.442;2023-03-11T07:57:18;1.90;92.70
14122;DHT22;7139;48.114;11.442;2023-03-11T07:59:45;1.70;93.10
14122;DHT22;7139;48.114;11.442;2023-03-11T08:02:11;1.70;93.40
14122;DHT22;7139;48.114;11.442;2023-03-11T08:04:38;1.70;93.60
14122;DHT22;7139;48.114;11.442;2023-03-11T08:07:05;1.70;93.70
14122;DHT22;7139;48.114;11.442;2023-03-11T08:09:33;1.90;93.70
14122;DHT22;7139;48.114;11.442;2023-03-11T08:12:01;2.10;92.90
14122;DHT22;7139;48.114;11.442;2023-03-11T08:14:28;2.30;93.10
14122;DHT22;7139;48.114;11.442;2023-03-11T08:16:55;2.50;92.70
14122;DHT22;7139;48.114;11.442;2023-03-11T08:19:22;2.60;91.90
14122;DHT22;7139;48.114;11.442;2023-03-11T08:21:49;2.70;91.30
14122;DHT22;7139;48.114;11.442;2023-03-11T08:24:15;2.80;90.90
14122;DHT22;7139;48.114;11.442;2023-03-11T08:26:42;2.70;90.70
14122;DHT22;7139;48.114;11.442;2023-03-11T08:29:11;2.60;90.80
14122;DHT22;7139;48.114;11.442;2023-03-11T08:31:38;2.50;91.00
14122;DHT22;7139;48.114;11.442;2023-03-11T08:34:06;2.40;91.20
14122;DHT22;7139;48.114;11.442;2023-03-11T08:36:33;2.50;91.40
14122;DHT22;7139;48.114;11.442;2023-03-11T08:39:00;2.70;91.40
14122;DHT22;7139;48.114;11.442;2023-03-11T08:41:27;2.70;91.40
14122;DHT22;7139;48.114;11.442;2023-03-11T08:43:54;2.90;91.20
14122;DHT22;7139;48.114;11.442;2023-03-11T08:46:24;2.70;90.80
14122;DHT22;7139;48.114;11.442;2023-03-11T08:48:52;2.80;90.80
14122;DHT22;7139;48.114;11.442;2023-03-11T08:51:19;2.80;90.60
14122;DHT22;7139;48.114;11.442;2023-03-11T08:53:46;2.80;90.80
14122;DHT22;7139;48.114;11.442;2023-03-11T08:56:13;2.90;90.80
14122;DHT22;7139;48.114;11.442;2023-03-11T08:58:40;2.90;90.70
14122;DHT22;7139;48.114;11.442;2023-03-11T09:01:07;2.90;90.50
14122;DHT22;7139;48.114;11.442;2023-03-11T09:03:35;2.70;90.60
14122;DHT22;7139;48.114;11.442;2023-03-11T09:06:04;2.70;90.50
14122;DHT22;7139;48.114;11.442;2023-03-11T09:08:31;2.80;90.80
14122;DHT22;7139;48.114;11.442;2023-03-11T09:10:58;2.90;90.30
14122;DHT22;7139;48.114;11.442;2023-03-11T09:13:26;3.00;90.30
14122;DHT22;7139;48.114;11.442;2023-03-11T09:15:53;3.20;90.00
14122;DHT22;7139;48.114;11.442;2023-03-11T09:18:20;3.50;89.70
14122;DHT22;7139;48.114;11.442;2023-03-11T09:20:48;3.80;89.00
14122;DHT22;7139;48.114;11.442;2023-03-11T09:23:16;4.10;88.80
14122;DHT22;7139;48.114;11.442;2023-03-11T09:25:43;4.00;86.70
14122;DHT22;7139;48.114;11.442;2023-03-11T09:28:10;3.80;87.50
14122;DHT22;7139;48.114;11.442;2023-03-11T09:30:37;4.20;87.60
14122;DHT22;7139;48.114;11.442;2023-03-11T09:33:04;4.70;87.40
14122;DHT22;7139;48.114;11.442;2023-03-11T09:35:31;4.90;84.90
14122;DHT22;7139;48.114;11.442;2023-03-11T09:37:59;4.50;83.30
14122;DHT22;7139;48.114;11.442;2023-03-11T09:40:31;4.40;85.20
14122;DHT22;7139;48.114;11.442;2023-03-11T09:43:06;4.60;85.20
14122;DHT22;7139;48.114;11.442;2023-03-11T09:45:41;4.70;84.50
14122;DHT22;7139;48.114;11.442;2023-03-11T09:48:18;5.00;84.60
14122;DHT22;7139;48.114;11.442;2023-03-11T09:50:52;4.80;82.70
14122;DHT22;7139;48.114;11.442;2023-03-11T09:53:31;4.80;83.40
14122;DHT22;7139;48.114;11.442;2023-03-11T09:56:05;5.00;84.20
14122;DHT22;7139;48.114;11.442;2023-03-11T09:58:38;5.20;83.70
14122;DHT22;7139;48.114;11.442;2023-03-11T10:01:14;5.10;82.20
14122;DHT22;7139;48.114;11.442;2023-03-11T10:03:42;5.30;82.10
14122;DHT22;7139;48.114;11.442;2023-03-11T10:06:14;5.50;80.30
14122;DHT22;7139;48.114;11.442;2023-03-11T10:08:50;5.40;80.40
14122;DHT22;7139;48.114;11.442;2023-03-11T10:14:41;5.60;79.90
14122;DHT22;7139;48.114;11.442;2023-03-11T10:17:18;5.60;78.10
14122;DHT22;7139;48.114;11.442;2023-03-11T10:19:50;5.60;78.00
14122;DHT22;7139;48.114;11.442;2023-03-11T10:22:25;5.50;77.80
14122;DHT22;7139;48.114;11.442;2023-03-11T10:25:08;5.40;77.70
14122;DHT22;7139;48.114;11.442;2023-03-11T10:27:41;5.10;76.50
14122;DHT22;7139;48.114;11.442;2023-03-11T10:30:18;4.90;76.40
14122;DHT22;7139;48.114;11.442;2023-03-11T10:32:47;5.00;77.00
14122;DHT22;7139;48.114;11.442;2023-03-11T10:35:19;5.30;78.20
14122;DHT22;7139;48.114;11.442;2023-03-11T10:37:50;5.70;76.50
14122;DHT22;7139;48.114;11.442;2023-03-11T10:40:23;5.70;75.90
14122;DHT22;7139;48.114;11.442;2023-03-11T10:42:53;6.00;75.60
14122;DHT22;7139;48.114;11.442;2023-03-11T10:45:21;6.10;74.00
14122;DHT22;7139;48.114;11.442;2023-03-11T10:47:49;6.50;74.30
14122;DHT22;7139;48.114;11.442;2023-03-11T10:50:17;6.70;73.20
14122;DHT22;7139;48.114;11.442;2023-03-11T10:53:04;6.70;70.80
14122;DHT22;7139;48.114;11.442;2023-03-11T10:55:44;6.60;71.90
14122;DHT22;7139;48.114;11.442;2023-03-11T10:58:13;6.70;71.60
14122;DHT22;7139;48.114;11.442;2023-03-11T11:00:40;6.90;71.70
14122;DHT22;7139;48.114;11.442;2023-03-11T11:03:16;6.60;71.40
14122;DHT22;7139;48.114;11.442;2023-03-11T11:05:43;6.60;71.30
14122;DHT22;7139;48.114;11.442;2023-03-11T11:08:13;6.60;70.80
14122;DHT22;7139;48.114;11.442;2023-03-11T11:10:50;6.50;72.20
14122;DHT22;7139;48.114;11.442;2023-03-11T11:13:19;6.40;71.70
14122;DHT22;7139;48.114;11.442;2023-03-11T11:15:52;6.40;71.40
14122;DHT22;7139;48.114;11.442;2023-03-11T11:18:22;6.40;70.50
14122;DHT22;7139;48.114;11.442;2023-03-11T11:20:56;6.70;72.50
14122;DHT22;7139;48.114;11.442;2023-03-11T11:23:27;6.80;73.20
14122;DHT22;7139;48.114;11.442;2023-03-11T11:25:59;7.00;71.60
14122;DHT22;7139;48.114;11.442;2023-03-11T11:28:26;7.20;72.20
14122;DHT22;7139;48.114;11.442;2023-03-11T11:30:55;7.40;71.10
14122;DHT22;7139;48.114;11.442;2023-03-11T11:33:25;6.90;70.50
14122;DHT22;7139;48.114;11.442;2023-03-11T11:35:54;6.60;71.10
14122;DHT22;7139;48.114;11.442;2023-03-11T11:38:23;6.50;71.50
14122;DHT22;7139;48.114;11.442;2023-03-11T11:40:51;6.10;71.80
14122;DHT22;7139;48.114;11.442;2023-03-11T11:43:24;6.50;72.80
14122;DHT22;7139;48.114;11.442;2023-03-11T11:45:54;6.80;72.20
14122;DHT22;7139;48.114;11.442;2023-03-11T11:48:25;7.10;71.90
14122;DHT22;7139;48.114;11.442;2023-03-11T11:50:56;7.20;70.90
14122;DHT22;7139;48.114;11.442;2023-03-11T11:53:30;7.30;71.40
14122;DHT22;7139;48.114;11.442;2023-03-11T11:55:58;7.30;70.60
14122;DHT22;7139;48.114;11.442;2023-03-11T11:58:26;7.60;70.80
14122;DHT22;7139;48.114;11.442;2023-03-11T12:01:13;7.70;70.10
14122;DHT22;7139;48.114;11.442;2023-03-11T12:06:43;8.00;68.00
14122;DHT22;7139;48.114;11.442;2023-03-11T12:09:19;7.90;69.00
14122;DHT22;7139;48.114;11.442;2023-03-11T12:11:51;7.80;68.50
14122;DHT22;7139;48.114;11.442;2023-03-11T12:14:25;7.60;68.70
14122;DHT22;7139;48.114;11.442;2023-03-11T12:16:58;7.50;70.10
14122;DHT22;7139;48.114;11.442;2023-03-11T12:19:36;7.60;71.90
14122;DHT22;7139;48.114;11.442;2023-03-11T12:25:30;8.20;68.10
14122;DHT22;7139;48.114;11.442;2023-03-11T12:28:04;8.50;68.90
14122;DHT22;7139;48.114;11.442;2023-03-11T12:30:37;8.60;68.20
14122;DHT22;7139;48.114;11.442;2023-03-11T12:33:13;8.30;68.30
14122;DHT22;7139;48.114;11.442;2023-03-11T12:35:47;8.00;68.30
14122;DHT22;7139;48.114;11.442;2023-03-11T12:38:16;8.00;68.70
14122;DHT22;7139;48.114;11.442;2023-03-11T12:43:57;8.60;68.40
14122;DHT22;7139;48.114;11.442;2023-03-11T12:49:38;8.60;67.10
14122;DHT22;7139;48.114;11.442;2023-03-11T12:52:27;8.80;68.10
14122;DHT22;7139;48.114;11.442;2023-03-11T12:55:22;8.90;67.00
14122;DHT22;7139;48.114;11.442;2023-03-11T12:57:52;8.70;65.40
14122;DHT22;7139;48.114;11.442;2023-03-11T13:00:26;8.90;64.50
14122;DHT22;7139;48.114;11.442;2023-03-11T13:03:13;8.70;64.50
14122;DHT22;7139;48.114;11.442;2023-03-11T13:05:53;8.20;66.20
14122;DHT22;7139;48.114;11.442;2023-03-11T13:08:21;8.40;67.30
14122;DHT22;7139;48.114;11.442;2023-03-11T13:10:49;8.60;67.50
14122;DHT22;7139;48.114;11.442;2023-03-11T13:13:31;8.50;64.90
14122;DHT22;7139;48.114;11.442;2023-03-11T13:16:39;8.50;65.80
14122;DHT22;7139;48.114;11.442;2023-03-11T13:19:32;8.50;66.10
14122;DHT22;7139;48.114;11.442;2023-03-11T13:22:01;8.60;66.00
14122;DHT22;7139;48.114;11.442;2023-03-11T13:24:48;8.20;68.30
14122;DHT22;7139;48.114;11.442;2023-03-11T13:27:26;8.10;68.10
14122;DHT22;7139;48.114;11.442;2023-03-11T13:29:59;8.10;68.00
14122;DHT22;7139;48.114;11.442;2023-03-11T13:32:50;8.00;69.10
14122;DHT22;7139;48.114;11.442;2023-03-11T13:35:32;7.70;68.10
14122;DHT22;7139;48.114;11.442;2023-03-11T13:38:19;7.60;70.50
14122;DHT22;7139;48.114;11.442;2023-03-11T13:40:55;7.60;68.40
14122;DHT22;7139;48.114;11.442;2023-03-11T13:43:24;7.40;69.40
14122;DHT22;7139;48.114;11.442;2023-03-11T13:45:52;7.40;70.90
14122;DHT22;7139;48.114;11.442;2023-03-11T13:48:25;7.50;69.90
14122;DHT22;7139;48.114;11.442;2023-03-11T13:50:57;7.40;70.60
14122;DHT22;7139;48.114;11.442;2023-03-11T13:53:31;7.20;71.30
14122;DHT22;7139;48.114;11.442;2023-03-11T13:56:00;7.10;72.60
14122;DHT22;7139;48.114;11.442;2023-03-11T13:58:27;7.00;72.00
14122;DHT22;7139;48.114;11.442;2023-03-11T14:00:55;7.20;71.60
14122;DHT22;7139;48.114;11.442;2023-03-11T14:03:24;7.30;71.70
14122;DHT22;7139;48.114;11.442;2023-03-11T14:05:57;7.20;72.10
14122;DHT22;7139;48.114;11.442;2023-03-11T14:08:29;7.00;71.70
14122;DHT22;7139;48.114;11.442;2023-03-11T14:10:57;6.90;73.40
14122;DHT22;7139;48.114;11.442;2023-03-11T14:13:26;6.70;73.30
14122;DHT22;7139;48.114;11.442;2023-03-11T14:16:00;6.70;72.50
14122;DHT22;7139;48.114;11.442;2023-03-11T14:18:34;6.80;73.30
14122;DHT22;7139;48.114;11.442;2023-03-11T14:21:02;6.60;72.60
14122;DHT22;7139;48.114;11.442;2023-03-11T14:23:33;6.60;73.00
14122;DHT22;7139;48.114;11.442;2023-03-11T14:26:03;6.80;72.50
14122;DHT22;7139;48.114;11.442;2023-03-11T14:28:33;6.90;72.90
14122;DHT22;7139;48.114;11.442;2023-03-11T14:31:01;6.70;72.50
14122;DHT22;7139;48.114;11.442;2023-03-11T14:33:28;6.50;72.50
14122;DHT22;7139;48.114;11.442;2023-03-11T14:35:56;6.50;73.70
14122;DHT22;7139;48.114;11.442;2023-03-11T14:38:25;6.40;72.20
14122;DHT22;7139;48.114;11.442;2023-03-11T14:40:56;6.50;74.40
14122;DHT22;7139;48.114;11.442;2023-03-11T14:43:23;6.70;74.20
14122;DHT22;7139;48.114;11.442;2023-03-11T14:45:51;6.70;73.30
14122;DHT22;7139;48.114;11.442;2023-03-11T14:48:22;6.90;73.30
14122;DHT22;7139;48.114;11.442;2023-03-11T14:50:51;6.60;71.90
14122;DHT22;7139;48.114;11.442;2023-03-11T14:53:21;6.50;72.60
14122;DHT22;7139;48.114;11.442;2023-03-11T14:55:53;6.40;72.90
14122;DHT22;7139;48.114;11.442;2023-03-11T14:58:27;6.50;73.90
14122;DHT22;7139;48.114;11.442;2023-03-11T15:00:59;6.60;73.50
14122;DHT22;7139;48.114;11.442;2023-03-11T15:03:29;6.80;73.80
14122;DHT22;7139;48.114;11.442;2023-03-11T15:05:59;6.90;73.20
14122;DHT22;7139;48.114;11.442;2023-03-11T15:08:31;6.80;72.30
14122;DHT22;7139;48.114;11.442;2023-03-11T15:11:00;6.80;72.60
14122;DHT22;7139;48.114;11.442;2023-03-11T15:13:29;7.10;73.10
14122;DHT22;7139;48.114;11.442;2023-03-11T15:15:56;6.90;72.90
14122;DHT22;7139;48.114;11.442;2023-03-11T15:18:24;7.00;75.80
14122;DHT22;7139;48.114;11.442;2023-03-11T15:21:06;7.20;72.90
14122;DHT22;7139;48.114;11.442;2023-03-11T15:23:37;7.30;72.80
14122;DHT22;7139;48.114;11.442;2023-03-11T15:26:05;7.20;72.90
14122;DHT22;7139;48.114;11.442;2023-03-11T15:28:35;7.30;72.50
14122;DHT22;7139;48.114;11.442;2023-03-11T15:31:23;7.50;73.20
14122;DHT22;7139;48.114;11.442;2023-03-11T15:33:51;7.40;72.90
14122;DHT22;7139;48.114;11.442;2023-03-11T15:36:29;7.00;72.50
14122;DHT22;7139;48.114;11.442;2023-03-11T15:39:10;6.60;73.40
14122;DHT22;7139;48.114;11.442;2023-03-11T15:41:37;6.50;73.90
14122;DHT22;7139;48.114;11.442;2023-03-11T15:44:19;6.40;74.50
14122;DHT22;7139;48.114;11.442;2023-03-11T15:46:47;6.20;74.70
14122;DHT22;7139;48.114;11.442;2023-03-11T15:49:14;6.00;74.40
14122;DHT22;7139;48.114;11.442;2023-03-11T15:51:41;5.80;75.20
14122;DHT22;7139;48.114;11.442;2023-03-11T15:54:07;6.00;75.20
14122;DHT22;7139;48.114;11.442;2023-03-11T15:56:34;6.00;75.40
14122;DHT22;7139;48.114;11.442;2023-03-11T15:59:01;6.20;75.60
14122;DHT22;7139;48.114;11.442;2023-03-11T16:01:29;6.30;75.40
14122;DHT22;7139;48.114;11.442;2023-03-11T16:03:56;6.30;75.50
14122;DHT22;7139;48.114;11.442;2023-03-11T16:06:23;6.00;75.40
14122;DHT22;7139;48.114;11.442;2023-03-11T16:08:50;6.00;76.20
14122;DHT22;7139;48.114;11.442;2023-03-11T16:11:17;6.00;76.00
14122;DHT22;7139;48.114;11.442;2023-03-11T16:13:44;6.00;75.70
14122;DHT22;7139;48.114;11.442;2023-03-11T16:16:14;6.00;76.40